Norris Rancho Marino Reserve, California Weather observations

Data are for 10 minute period ending at time listed.
 Day   Time   Solar   Ave.   Ave.  Ave.  Vector  Max.   Baro.   Total    
  of    of     Rad.   Air    Rel.  Wind   Wind   Wind  Press.  Precip.   
Year   Day            Temp.  Hum.  Speed  Dir.   Gust                    
2017   (PST)  Kw/m2    F      %     mph   deg.    mph    mb.     in.     
-------------------------------------------------------------------------
  23    3:40   0.00   51.5    74   10.0   234    14.8   1005.6    0.00 
  23    3:50   0.00   52.1    75   11.9   236    20.0   1005.5    0.00 
  23    4:00   0.00   51.3    78   10.7   229    14.7   1005.5    0.00 
  23    4:10   0.00   51.8    76    9.2   224    12.6   1005.5    0.00 
  23    4:20   0.00   52.1    73   11.0   223    15.5   1005.5    0.00 
  23    4:30   0.00   52.4    72   11.2   229    14.7   1005.4    0.00 
  23    4:40   0.01   51.5    72   17.4   253    27.9   1005.6    0.01 
  23    4:50   0.01   49.9    80   22.7   268    31.7   1005.8    0.00 
  23    5:00   0.01   48.0    83   18.1   285    25.7   1005.8    0.00 
  23    5:10   0.01   48.1    83   13.7   286    17.0   1005.9    0.00 
  23    5:20   0.01   47.9    82    7.9   306    14.3   1006.0    0.00 
  23    5:30   0.01   47.3    83    6.1   345     9.5   1005.9    0.00 
  23    5:40   0.01   46.5    85    5.3    15     8.0   1006.0    0.00 
  23    5:50   0.01   45.8    87    5.9    17     7.7   1006.2    0.00 
  23    6:00   0.01   45.3    88    6.6    26     8.7   1006.4    0.00 
  23    6:10   0.01   45.0    88    7.3    31     8.8   1006.4    0.00 
  23    6:20   0.00   44.6    89    6.0    28     7.8   1006.5    0.00 
  23    6:30   0.00   44.4    89    5.6    29     7.0   1006.6    0.00 
  23    6:40   0.00   43.9    90    4.8    32     6.6   1006.6    0.00 
  23    6:50   0.00   43.5    90    4.4    34     5.6   1006.8    0.00 
  23    7:00   0.00   43.4    91    5.1    44     6.4   1006.9    0.00 
  23    7:10   0.00   43.7    92    6.0    45     7.3   1007.0    0.00 
  23    7:20   0.01   44.2    92    5.4    48     6.9   1007.1    0.00 
  23    7:30   0.01   44.4    92    3.7    64     5.4   1007.1    0.00 
  23    7:40   0.01   44.6    92    2.5    93     3.8   1007.0    0.00 
  23    7:50   0.01   45.0    92    2.9    92     5.2   1006.9    0.01 
  23    8:00   0.02   45.9    92    4.7   124    15.5   1006.8    0.00 
  23    8:10   0.03   47.6    91    7.2   155    12.3   1006.8    0.00 
  23    8:20   0.03   47.5    88    6.4   172    11.9   1007.2    0.00 
  23    8:30   0.04   47.4    86    4.1   218     7.7   1007.6    0.00 
  23    8:40   0.05   46.8    87    3.5    61     5.1   1007.8    0.00 
  23    8:50   0.09   46.8    87    1.9   100     5.7   1008.0    0.00 
  23    9:00   0.11   47.6    87    3.0   190     5.3   1008.1    0.00 
  23    9:10   0.11   48.1    84    4.4   200     7.4   1008.3    0.00 
  23    9:20   0.23   48.8    80    5.6   205     7.9   1008.5    0.00 
  23    9:30   0.34   50.2    79    5.0   205     7.0   1008.6    0.00 
  23    9:40   0.36   50.5    79    4.1   215     6.3   1009.0    0.00 
  23    9:50   0.39   50.6    78    4.4   224     7.4   1009.6    0.00 
  23   10:00   0.40   51.1    78    3.9   210     5.6   1009.9    0.00 
  23   10:10   0.43   51.5    77    3.0   182     4.7   1010.1    0.00 
  23   10:20   0.49   52.4    75    2.4   170     4.7   1010.1    0.00 
  23   10:30   0.56   53.0    72    1.8   159     4.2   1010.0    0.00 
  23   10:40   0.50   53.1    72    2.6   180     5.3   1010.0    0.00 
  23   10:50   0.32   51.7    74    5.4   212     8.2   1010.0    0.00 
  23   11:00   0.14   50.5    77    9.5   287    21.2   1010.2    0.00 
  23   11:10   0.40   49.3    84    6.8   356    12.6   1010.0    0.00 
  23   11:20   0.57   50.1    86    5.3   330    10.4   1009.9    0.00 
  23   11:30   0.27   49.0    83    6.0     4    10.7   1010.0    0.00 
  23   11:40   0.17   48.8    80    5.1    22     8.0   1009.8    0.00 
  23   11:50   0.56   49.8    80    4.4    34     7.1   1009.4    0.00 
  23   12:00   0.45   50.9    76    3.1   320     6.6   1009.5    0.00 
  23   12:10   0.19   50.8    70    2.7   319     5.1   1009.6    0.00 
  23   12:20   0.20   50.9    71    4.0   270     6.8   1009.5    0.00 
  23   12:30   0.28   50.8    71    5.1   266     8.1   1009.4    0.00 
  23   12:40   0.34   50.9    71    5.1   263     7.1   1009.3    0.00 
  23   12:50   0.66   52.2    72    5.8   253     7.9   1009.3    0.00 
  23   13:00   0.63   52.4    71    5.3   247     7.5   1009.3    0.00 
  23   13:10   0.57   51.9    70    4.9   259     7.9   1009.1    0.00 
  23   13:20   0.57   52.3    70    8.3   276    11.0   1009.1    0.00 
  23   13:30   0.58   52.7    70    8.6   271    11.2   1009.0    0.00 
  23   13:40   0.55   53.0    70    8.8   267    12.0   1008.8    0.00 
  23   13:50   0.29   52.2    72   10.3   270    12.9   1008.9    0.00 
  23   14:00   0.26   51.7    73   10.7   273    14.8   1008.8    0.00 
  23   14:10   0.42   52.4    72   10.9   276    14.5   1008.8    0.00 
  23   14:20   0.33   52.4    71   11.9   273    15.3   1008.8    0.00 
  23   14:30   0.45   52.2    70   11.6   282    14.8   1008.8    0.00 
  23   14:40   0.34   52.5    70   10.4   274    13.7   1008.7    0.00 
  23   14:50   0.46   53.1    71   10.1   270    13.8   1008.7    0.00 
  23   15:00   0.40   52.9    71   12.7   266    15.8   1009.1    0.00 
  23   15:10   0.41   52.7    71   11.8   268    15.5   1009.3    0.00 
  23   15:20   0.27   52.6    72   11.7   269    15.2   1009.3    0.00 
  23   15:30   0.22   51.9    72   13.2   272    16.4   1009.4    0.00 
  23   15:40   0.30   52.5    72   13.3   267    16.2   1009.3    0.00 
  23   15:50   0.17   52.0    71   11.5   268    15.5   1009.3    0.00 
  23   16:00   0.08   51.2    74   10.7   278    13.7   1009.3    0.00 
  23   16:10   0.24   51.9    74   11.0   280    14.0   1009.2    0.00 
  23   16:20   0.10   51.6    72   10.5   277    14.2   1009.2    0.00 
  23   16:30   0.04   50.8    72   13.2   274    16.5   1009.4    0.00 
  23   16:40   0.03   50.4    68   11.8   279    16.3   1009.2    0.00 
  23   16:50   0.08   50.7    67   10.8   277    14.2   1008.9    0.00 
  23   17:00   0.10   51.2    67   10.4   274    12.8   1008.9    0.00 
  23   17:10   0.05   50.7    68   10.3   279    12.9   1009.1    0.00 
  23   17:20   0.01   50.1    69    9.9   278    12.7   1009.1    0.00 
  23   17:30   0.01   50.0    72   10.1   279    13.4   1009.0    0.00 
  23   17:40   0.00   49.8    73    8.6   286    12.1   1009.0    0.00 
  23   17:50   0.00   48.2    75    4.5   355     7.0   1009.0    0.00 
  23   18:00   0.00   47.4    77    4.9     3     8.0   1008.9    0.00 
  23   18:10   0.00   47.3    77    5.5   356     8.0   1009.0    0.00 
  23   18:20   0.00   47.0    78    5.2     1     6.7   1009.1    0.00 
  23   18:30   0.00   46.6    79    5.8     7     8.4   1009.2    0.00 
  23   18:40   0.00   46.3    80    6.3    14     8.0   1009.3    0.00 
  23   18:50   0.00   46.3    80    6.2    13     8.1   1009.3    0.00 
  23   19:00   0.00   46.1    81    5.8     8     8.2   1009.4    0.00 
  23   19:10   0.00   46.3    81    5.6    12     7.5   1009.3    0.00 
  23   19:20   0.00   46.2    82    5.7    13     7.1   1009.4    0.00 
  23   19:30   0.00   46.0    82    5.4     8     7.5   1009.5    0.00 
  23   19:40   0.00   45.9    83    5.1     6     6.7   1009.7    0.00 
  23   19:50   0.00   45.8    83    5.0    11     6.9   1009.7    0.00 
  23   20:00   0.00   45.7    83    4.9     5     6.8   1009.7    0.00 
  23   20:10   0.00   45.4    84    4.7    10     6.4   1009.7    0.00 
  23   20:20   0.00   45.2    84    5.0    17     6.9   1009.7    0.00 
  23   20:30   0.00   45.5    84    5.6    22     7.1   1009.7    0.00 
  23   20:40   0.00   45.5    83    5.0    15     6.4   1009.8    0.00 
  23   20:50   0.00   46.1    83    5.7    25     7.4   1009.9    0.00 
  23   21:00   0.00   46.1    82    5.3    28     6.4   1009.9    0.00 
  23   21:10   0.00   45.4    84    4.4    30     5.6   1009.9    0.00 
  23   21:20   0.00   45.1    85    4.5    35     5.9   1010.1    0.00 
  23   21:30   0.00   45.0    86    4.7    29     6.2   1010.3    0.00 
  23   21:40   0.00   45.3    86    5.3    26     6.3   1010.4    0.00 
  23   21:50   0.01   45.6    86   13.9   300    30.5   1010.9    0.00 
  23   22:00   0.01   45.1    90   19.1   294    25.9   1011.3    0.06 
  23   22:10   0.01   44.6    91   14.5   300    20.9   1011.5    0.04 
  23   22:20   0.01   43.9    92   11.7   312    18.3   1011.6    0.04 
  23   22:30   0.00   43.8    92    7.2   333    11.0   1011.8    0.05 
  23   22:40   0.00   43.5    92    4.1   356     6.6   1011.9    0.05 
  23   22:50   0.00   43.3    92    4.4    28     6.2   1011.8    0.02 
  23   23:00   0.00   43.2    92    6.5    52     8.9   1011.6    0.01 
  23   23:10   0.00   43.0    92    4.8    41     8.1   1011.6    0.00 
  23   23:20   0.00   42.8    92    5.5    50     8.3   1011.5    0.00 
  23   23:30   0.00   42.7    92    6.8    54     9.9   1011.4    0.00 
  23   23:40   0.00   42.6    92    7.0    52    10.2   1011.4    0.00 
  23   23:50   0.00   42.6    91    7.7    51    10.9   1011.3    0.00 
  24    0:00   0.00   42.7    91    7.5    50    11.3   1011.1    0.00 
  24    0:10   0.00   42.9    90    7.5    52    11.5   1011.1    0.00 
  24    0:20   0.00   43.1    89    6.5    48     9.1   1011.1    0.00 
  24    0:30   0.00   42.9    90    3.3    62     7.2   1011.0    0.00 
  24    0:40   0.00   42.7    91    3.2    74     6.1   1010.9    0.00 
  24    0:50   0.00   42.8    91    5.4    54     7.2   1010.9    0.00 
  24    1:00   0.00   42.8    91    6.2    51     8.8   1010.9    0.00 
  24    1:10   0.00   43.0    91    6.7    52     8.6   1010.7    0.00 
  24    1:20   0.00   43.0    91    6.8    52     8.9   1010.7    0.00 
  24    1:30   0.00   43.1    90    6.9    54     8.6   1010.7    0.00 
  24    1:40   0.00   43.0    91    6.6    50     8.5   1010.7    0.00 
  24    1:50   0.00   42.9    91    5.2    50     7.5   1010.7    0.00 
  24    2:00   0.00   42.8    91    3.8    60     5.8   1010.8    0.00 
  24    2:10   0.00   42.6    92    4.6    48     6.1   1010.9    0.00 
  24    2:20   0.00   42.5    92    5.1    53     6.6   1010.9    0.00 
  24    2:30   0.00   42.1    92    4.1    50     5.0   1010.9    0.00 
  24    2:40   0.00   41.7    93    4.7    62     5.5   1010.9    0.00 
  24    2:50   0.00   41.3    93    5.3    53     6.7   1010.8    0.00 
  24    3:00   0.00   41.1    93    6.1    55     7.7   1010.8    0.00 
  24    3:10   0.00   40.7    93    5.9    52     7.9   1010.9    0.00 
  24    3:20   0.00   40.5    93    5.7    58     7.0   1010.9    0.00 
  24    3:30   0.00   40.4    93    5.5    50     7.0   1010.8    0.00 

Return to Norris Rancho Marino Reserve graphs page.


Western Regional Climate Center,wrcc@dri.edu